sensor_id;sensor_type;location;lat;lon;timestamp;temperature;humidity
36442;DHT22;64346;50.820;16.274;2023-08-21T00:01:42;23.10;99.90
36442;DHT22;64346;50.820;16.274;2023-08-21T00:04:14;23.10;99.90
36442;DHT22;64346;50.820;16.274;2023-08-21T00:06:43;23.10;99.90
36442;DHT22;64346;50.820;16.274;2023-08-21T00:09:10;23.20;99.90
36442;DHT22;64346;50.820;16.274;2023-08-21T00:11:40;23.20;99.90
36442;DHT22;64346;50.820;16.274;2023-08-21T00:14:10;23.10;99.90
36442;DHT22;64346;50.820;16.274;2023-08-21T00:16:37;23.10;99.90
36442;DHT22;64346;50.820;16.274;2023-08-21T00:19:07;23.10;99.90
36442;DHT22;64346;50.820;16.274;2023-08-21T00:21:34;23.10;99.90
36442;DHT22;64346;50.820;16.274;2023-08-21T00:24:01;23.20;99.90
36442;DHT22;64346;50.820;16.274;2023-08-21T00:26:31;23.20;99.90
36442;DHT22;64346;50.820;16.274;2023-08-21T00:29:01;23.10;99.90
36442;DHT22;64346;50.820;16.274;2023-08-21T00:31:30;23.10;99.90
36442;DHT22;64346;50.820;16.274;2023-08-21T00:34:00;23.20;99.90
36442;DHT22;64346;50.820;16.274;2023-08-21T00:36:32;23.20;99.90
36442;DHT22;64346;50.820;16.274;2023-08-21T00:38:59;23.20;99.90
36442;DHT22;64346;50.820;16.274;2023-08-21T00:41:29;23.20;99.90
36442;DHT22;64346;50.820;16.274;2023-08-21T00:43:58;23.20;99.90
36442;DHT22;64346;50.820;16.274;2023-08-21T00:46:28;23.30;99.90
36442;DHT22;64346;50.820;16.274;2023-08-21T00:48:56;23.30;99.90
36442;DHT22;64346;50.820;16.274;2023-08-21T00:51:25;23.30;99.90
36442;DHT22;64346;50.820;16.274;2023-08-21T00:53:55;23.40;99.90
36442;DHT22;64346;50.820;16.274;2023-08-21T00:56:22;23.40;99.90
36442;DHT22;64346;50.820;16.274;2023-08-21T00:58:52;23.40;99.90
36442;DHT22;64346;50.820;16.274;2023-08-21T01:01:22;23.40;99.90
36442;DHT22;64346;50.820;16.274;2023-08-21T01:03:50;23.40;99.90
36442;DHT22;64346;50.820;16.274;2023-08-21T01:06:21;23.40;99.90
36442;DHT22;64346;50.820;16.274;2023-08-21T01:09:02;23.40;99.90
36442;DHT22;64346;50.820;16.274;2023-08-21T01:11:45;23.40;99.90
36442;DHT22;64346;50.820;16.274;2023-08-21T01:14:17;23.30;99.90
36442;DHT22;64346;50.820;16.274;2023-08-21T01:16:50;23.30;99.90
36442;DHT22;64346;50.820;16.274;2023-08-21T01:19:40;23.40;99.90
36442;DHT22;64346;50.820;16.274;2023-08-21T01:22:10;23.40;99.90
36442;DHT22;64346;50.820;16.274;2023-08-21T01:24:37;23.40;99.90
36442;DHT22;64346;50.820;16.274;2023-08-21T01:27:05;23.40;99.90
36442;DHT22;64346;50.820;16.274;2023-08-21T01:29:35;23.40;99.90
36442;DHT22;64346;50.820;16.274;2023-08-21T01:32:23;23.40;99.90
36442;DHT22;64346;50.820;16.274;2023-08-21T01:34:58;23.30;99.90
36442;DHT22;64346;50.820;16.274;2023-08-21T01:37:26;23.20;99.90
36442;DHT22;64346;50.820;16.274;2023-08-21T01:39:58;23.20;99.90
36442;DHT22;64346;50.820;16.274;2023-08-21T01:42:25;23.20;99.90
36442;DHT22;64346;50.820;16.274;2023-08-21T01:44:52;23.30;99.90
36442;DHT22;64346;50.820;16.274;2023-08-21T01:47:20;23.30;99.90
36442;DHT22;64346;50.820;16.274;2023-08-21T01:49:47;23.30;99.90
36442;DHT22;64346;50.820;16.274;2023-08-21T01:52:21;23.30;99.90
36442;DHT22;64346;50.820;16.274;2023-08-21T01:54:50;23.30;99.90
36442;DHT22;64346;50.820;16.274;2023-08-21T01:57:18;23.40;99.90
36442;DHT22;64346;50.820;16.274;2023-08-21T01:59:45;23.40;99.90
36442;DHT22;64346;50.820;16.274;2023-08-21T02:02:12;23.40;99.90
36442;DHT22;64346;50.820;16.274;2023-08-21T02:04:40;23.40;99.90
36442;DHT22;64346;50.820;16.274;2023-08-21T02:07:09;23.40;99.90
36442;DHT22;64346;50.820;16.274;2023-08-21T02:09:38;23.40;99.90
36442;DHT22;64346;50.820;16.274;2023-08-21T02:12:08;23.40;99.90
36442;DHT22;64346;50.820;16.274;2023-08-21T02:14:40;23.40;99.90
36442;DHT22;64346;50.820;16.274;2023-08-21T02:17:07;23.30;99.90
36442;DHT22;64346;50.820;16.274;2023-08-21T02:19:34;23.30;99.90
36442;DHT22;64346;50.820;16.274;2023-08-21T02:22:06;23.20;99.90
36442;DHT22;64346;50.820;16.274;2023-08-21T02:24:35;23.20;99.90
36442;DHT22;64346;50.820;16.274;2023-08-21T02:27:03;23.20;99.90
36442;DHT22;64346;50.820;16.274;2023-08-21T02:29:30;23.20;99.90
36442;DHT22;64346;50.820;16.274;2023-08-21T02:31:57;23.20;99.90
36442;DHT22;64346;50.820;16.274;2023-08-21T02:34:27;23.20;99.90
36442;DHT22;64346;50.820;16.274;2023-08-21T02:36:57;23.20;99.90
36442;DHT22;64346;50.820;16.274;2023-08-21T02:39:26;23.20;99.90
36442;DHT22;64346;50.820;16.274;2023-08-21T02:41:56;23.20;99.90
36442;DHT22;64346;50.820;16.274;2023-08-21T02:44:23;23.20;99.90
36442;DHT22;64346;50.820;16.274;2023-08-21T02:46:53;23.20;99.90
36442;DHT22;64346;50.820;16.274;2023-08-21T02:49:20;23.10;99.90
36442;DHT22;64346;50.820;16.274;2023-08-21T02:51:50;23.10;99.90
36442;DHT22;64346;50.820;16.274;2023-08-21T02:54:17;23.10;99.90
36442;DHT22;64346;50.820;16.274;2023-08-21T02:56:44;23.10;99.90
36442;DHT22;64346;50.820;16.274;2023-08-21T02:59:12;23.10;99.90
36442;DHT22;64346;50.820;16.274;2023-08-21T03:01:39;23.10;99.90
36442;DHT22;64346;50.820;16.274;2023-08-21T03:04:06;23.10;99.90
36442;DHT22;64346;50.820;16.274;2023-08-21T03:06:33;23.00;99.90
36442;DHT22;64346;50.820;16.274;2023-08-21T03:09:00;23.00;99.90
36442;DHT22;64346;50.820;16.274;2023-08-21T03:11:28;23.10;99.90
36442;DHT22;64346;50.820;16.274;2023-08-21T03:13:57;23.00;99.90
36442;DHT22;64346;50.820;16.274;2023-08-21T03:16:27;23.10;99.90
36442;DHT22;64346;50.820;16.274;2023-08-21T03:21:23;23.10;99.90
36442;DHT22;64346;50.820;16.274;2023-08-21T03:23:56;23.10;99.90
36442;DHT22;64346;50.820;16.274;2023-08-21T03:26:23;23.10;99.90
36442;DHT22;64346;50.820;16.274;2023-08-21T03:28:55;23.10;99.90
36442;DHT22;64346;50.820;16.274;2023-08-21T03:31:23;23.00;99.90
36442;DHT22;64346;50.820;16.274;2023-08-21T03:33:50;23.00;99.90
36442;DHT22;64346;50.820;16.274;2023-08-21T03:36:18;22.90;99.90
36442;DHT22;64346;50.820;16.274;2023-08-21T03:38:45;22.90;99.90
36442;DHT22;64346;50.820;16.274;2023-08-21T03:41:12;22.90;99.90
36442;DHT22;64346;50.820;16.274;2023-08-21T03:43:42;22.70;99.90
36442;DHT22;64346;50.820;16.274;2023-08-21T03:46:09;22.70;99.90
36442;DHT22;64346;50.820;16.274;2023-08-21T03:48:36;22.60;99.90
36442;DHT22;64346;50.820;16.274;2023-08-21T03:51:04;22.40;99.90
36442;DHT22;64346;50.820;16.274;2023-08-21T03:53:31;22.30;99.90
36442;DHT22;64346;50.820;16.274;2023-08-21T03:55:58;22.30;99.90
36442;DHT22;64346;50.820;16.274;2023-08-21T03:58:26;22.40;99.90
36442;DHT22;64346;50.820;16.274;2023-08-21T04:00:55;22.40;99.90
36442;DHT22;64346;50.820;16.274;2023-08-21T04:03:25;22.50;99.90
36442;DHT22;64346;50.820;16.274;2023-08-21T04:05:55;22.50;99.90
36442;DHT22;64346;50.820;16.274;2023-08-21T04:08:23;22.50;99.90
36442;DHT22;64346;50.820;16.274;2023-08-21T04:10:50;22.50;99.90
36442;DHT22;64346;50.820;16.274;2023-08-21T04:13:17;22.50;99.90
36442;DHT22;64346;50.820;16.274;2023-08-21T04:15:48;22.60;99.90
36442;DHT22;64346;50.820;16.274;2023-08-21T04:18:18;22.60;99.90
36442;DHT22;64346;50.820;16.274;2023-08-21T04:21:07;22.60;99.90
36442;DHT22;64346;50.820;16.274;2023-08-21T04:23:37;22.60;99.90
36442;DHT22;64346;50.820;16.274;2023-08-21T04:26:07;22.50;99.90
36442;DHT22;64346;50.820;16.274;2023-08-21T04:28:37;22.40;99.90
36442;DHT22;64346;50.820;16.274;2023-08-21T04:31:06;22.40;99.90
36442;DHT22;64346;50.820;16.274;2023-08-21T04:33:38;22.30;99.90
36442;DHT22;64346;50.820;16.274;2023-08-21T04:36:06;22.20;99.90
36442;DHT22;64346;50.820;16.274;2023-08-21T04:38:33;22.20;99.90
36442;DHT22;64346;50.820;16.274;2023-08-21T04:41:07;22.10;99.90
36442;DHT22;64346;50.820;16.274;2023-08-21T04:43:35;22.10;99.90
36442;DHT22;64346;50.820;16.274;2023-08-21T04:46:04;22.10;99.90
36442;DHT22;64346;50.820;16.274;2023-08-21T04:48:32;22.00;99.90
36442;DHT22;64346;50.820;16.274;2023-08-21T04:51:02;22.10;99.90
36442;DHT22;64346;50.820;16.274;2023-08-21T04:53:29;22.10;99.90
36442;DHT22;64346;50.820;16.274;2023-08-21T04:55:58;22.20;99.90
36442;DHT22;64346;50.820;16.274;2023-08-21T04:58:28;22.20;99.90
36442;DHT22;64346;50.820;16.274;2023-08-21T05:00:55;22.30;99.90
36442;DHT22;64346;50.820;16.274;2023-08-21T05:03:29;22.50;99.90
36442;DHT22;64346;50.820;16.274;2023-08-21T05:05:59;22.70;99.90
36442;DHT22;64346;50.820;16.274;2023-08-21T05:08:26;22.80;99.90
36442;DHT22;64346;50.820;16.274;2023-08-21T05:10:58;23.00;99.90
36442;DHT22;64346;50.820;16.274;2023-08-21T05:13:25;23.10;99.90
36442;DHT22;64346;50.820;16.274;2023-08-21T05:15:56;23.30;99.90
36442;DHT22;64346;50.820;16.274;2023-08-21T05:18:27;23.50;99.90
36442;DHT22;64346;50.820;16.274;2023-08-21T05:20:55;23.90;99.90
36442;DHT22;64346;50.820;16.274;2023-08-21T05:23:25;24.30;99.90
36442;DHT22;64346;50.820;16.274;2023-08-21T05:25:53;24.40;99.90
36442;DHT22;64346;50.820;16.274;2023-08-21T05:28:20;24.20;99.90
36442;DHT22;64346;50.820;16.274;2023-08-21T05:30:47;23.90;99.90
36442;DHT22;64346;50.820;16.274;2023-08-21T05:33:14;23.60;99.90
36442;DHT22;64346;50.820;16.274;2023-08-21T05:35:44;23.30;99.90
36442;DHT22;64346;50.820;16.274;2023-08-21T05:38:14;23.00;99.90
36442;DHT22;64346;50.820;16.274;2023-08-21T05:40:41;22.80;99.90
36442;DHT22;64346;50.820;16.274;2023-08-21T05:43:08;22.70;99.90
36442;DHT22;64346;50.820;16.274;2023-08-21T05:45:36;22.60;99.90
36442;DHT22;64346;50.820;16.274;2023-08-21T05:48:03;22.40;99.90
36442;DHT22;64346;50.820;16.274;2023-08-21T05:50:36;22.20;99.90
36442;DHT22;64346;50.820;16.274;2023-08-21T05:53:06;22.10;99.90
36442;DHT22;64346;50.820;16.274;2023-08-21T05:55:33;22.10;99.90
36442;DHT22;64346;50.820;16.274;2023-08-21T05:58:03;22.10;99.90
36442;DHT22;64346;50.820;16.274;2023-08-21T06:00:32;22.00;99.90
36442;DHT22;64346;50.820;16.274;2023-08-21T06:03:02;22.00;99.90
36442;DHT22;64346;50.820;16.274;2023-08-21T06:05:30;22.00;99.90
36442;DHT22;64346;50.820;16.274;2023-08-21T06:08:00;22.00;99.90
36442;DHT22;64346;50.820;16.274;2023-08-21T06:10:27;22.00;99.90
36442;DHT22;64346;50.820;16.274;2023-08-21T06:12:54;22.00;99.90
36442;DHT22;64346;50.820;16.274;2023-08-21T06:15:24;22.00;99.90
36442;DHT22;64346;50.820;16.274;2023-08-21T06:17:51;22.10;99.90
36442;DHT22;64346;50.820;16.274;2023-08-21T06:20:21;22.00;99.90
36442;DHT22;64346;50.820;16.274;2023-08-21T06:22:48;22.00;99.90
36442;DHT22;64346;50.820;16.274;2023-08-21T06:25:16;22.00;99.90
36442;DHT22;64346;50.820;16.274;2023-08-21T06:27:45;22.00;99.90
36442;DHT22;64346;50.820;16.274;2023-08-21T06:30:26;22.00;99.90
36442;DHT22;64346;50.820;16.274;2023-08-21T06:32:54;22.10;99.90
36442;DHT22;64346;50.820;16.274;2023-08-21T06:35:21;22.10;99.90
36442;DHT22;64346;50.820;16.274;2023-08-21T06:37:49;22.10;99.90
36442;DHT22;64346;50.820;16.274;2023-08-21T06:40:16;22.10;99.90
36442;DHT22;64346;50.820;16.274;2023-08-21T06:42:43;22.10;99.90
36442;DHT22;64346;50.820;16.274;2023-08-21T06:45:13;22.20;99.90
36442;DHT22;64346;50.820;16.274;2023-08-21T06:47:40;22.30;99.90
36442;DHT22;64346;50.820;16.274;2023-08-21T06:50:11;22.30;99.90
36442;DHT22;64346;50.820;16.274;2023-08-21T06:52:41;22.20;99.90
36442;DHT22;64346;50.820;16.274;2023-08-21T06:55:11;22.20;99.90
36442;DHT22;64346;50.820;16.274;2023-08-21T06:57:38;22.20;99.90
36442;DHT22;64346;50.820;16.274;2023-08-21T07:00:06;22.30;99.90
36442;DHT22;64346;50.820;16.274;2023-08-21T07:02:34;22.40;99.90
36442;DHT22;64346;50.820;16.274;2023-08-21T07:05:01;22.40;99.90
36442;DHT22;64346;50.820;16.274;2023-08-21T07:07:29;22.40;99.90
36442;DHT22;64346;50.820;16.274;2023-08-21T07:09:56;22.40;99.90
36442;DHT22;64346;50.820;16.274;2023-08-21T07:12:25;22.40;99.90
36442;DHT22;64346;50.820;16.274;2023-08-21T07:14:55;22.40;99.90
36442;DHT22;64346;50.820;16.274;2023-08-21T07:17:22;22.40;99.90
36442;DHT22;64346;50.820;16.274;2023-08-21T07:19:50;22.40;99.90
36442;DHT22;64346;50.820;16.274;2023-08-21T07:22:20;22.30;99.90
36442;DHT22;64346;50.820;16.274;2023-08-21T07:24:47;22.20;99.90
36442;DHT22;64346;50.820;16.274;2023-08-21T07:27:17;22.20;99.90
36442;DHT22;64346;50.820;16.274;2023-08-21T07:29:44;22.10;99.90
36442;DHT22;64346;50.820;16.274;2023-08-21T07:32:12;22.00;99.90
36442;DHT22;64346;50.820;16.274;2023-08-21T07:34:42;22.00;99.90
36442;DHT22;64346;50.820;16.274;2023-08-21T07:37:11;22.00;99.90
36442;DHT22;64346;50.820;16.274;2023-08-21T07:39:41;22.10;99.90
36442;DHT22;64346;50.820;16.274;2023-08-21T07:42:11;22.20;99.90
36442;DHT22;64346;50.820;16.274;2023-08-21T07:44:39;22.20;99.90
36442;DHT22;64346;50.820;16.274;2023-08-21T07:47:06;22.30;99.90
36442;DHT22;64346;50.820;16.274;2023-08-21T07:49:34;22.20;99.90
36442;DHT22;64346;50.820;16.274;2023-08-21T07:52:03;22.10;99.90
36442;DHT22;64346;50.820;16.274;2023-08-21T07:54:30;22.00;99.90
36442;DHT22;64346;50.820;16.274;2023-08-21T07:57:00;21.90;99.90
36442;DHT22;64346;50.820;16.274;2023-08-21T07:59:27;21.80;99.90
36442;DHT22;64346;50.820;16.274;2023-08-21T08:01:56;21.80;99.90
36442;DHT22;64346;50.820;16.274;2023-08-21T08:04:24;21.90;99.90
36442;DHT22;64346;50.820;16.274;2023-08-21T08:06:51;21.90;99.90
36442;DHT22;64346;50.820;16.274;2023-08-21T08:09:21;22.00;99.90
36442;DHT22;64346;50.820;16.274;2023-08-21T08:11:48;21.70;99.90
36442;DHT22;64346;50.820;16.274;2023-08-21T08:14:15;21.40;99.90
36442;DHT22;64346;50.820;16.274;2023-08-21T08:16:45;21.30;99.90
36442;DHT22;64346;50.820;16.274;2023-08-21T08:19:15;21.30;99.90
36442;DHT22;64346;50.820;16.274;2023-08-21T08:21:42;21.40;99.90
36442;DHT22;64346;50.820;16.274;2023-08-21T08:24:10;21.30;99.90
36442;DHT22;64346;50.820;16.274;2023-08-21T08:26:37;21.30;99.90
36442;DHT22;64346;50.820;16.274;2023-08-21T08:29:06;21.40;99.90
36442;DHT22;64346;50.820;16.274;2023-08-21T08:31:33;21.40;99.90
36442;DHT22;64346;50.820;16.274;2023-08-21T08:34:01;21.40;99.90
36442;DHT22;64346;50.820;16.274;2023-08-21T08:36:28;21.40;99.90
36442;DHT22;64346;50.820;16.274;2023-08-21T08:38:56;21.50;99.90
36442;DHT22;64346;50.820;16.274;2023-08-21T08:44:03;21.70;99.90
36442;DHT22;64346;50.820;16.274;2023-08-21T08:46:31;21.80;99.90
36442;DHT22;64346;50.820;16.274;2023-08-21T08:48:59;21.80;99.90
36442;DHT22;64346;50.820;16.274;2023-08-21T08:51:30;21.80;99.90
36442;DHT22;64346;50.820;16.274;2023-08-21T08:53:59;21.80;99.90
36442;DHT22;64346;50.820;16.274;2023-08-21T08:56:29;22.00;99.90
36442;DHT22;64346;50.820;16.274;2023-08-21T08:58:56;22.10;99.90
36442;DHT22;64346;50.820;16.274;2023-08-21T09:01:23;22.60;99.90
36442;DHT22;64346;50.820;16.274;2023-08-21T09:03:51;23.00;99.90
36442;DHT22;64346;50.820;16.274;2023-08-21T09:06:18;23.30;99.90
36442;DHT22;64346;50.820;16.274;2023-08-21T09:08:54;23.50;99.90
36442;DHT22;64346;50.820;16.274;2023-08-21T09:11:21;23.70;99.90
36442;DHT22;64346;50.820;16.274;2023-08-21T09:13:53;23.80;99.90
36442;DHT22;64346;50.820;16.274;2023-08-21T09:16:22;23.70;99.90
36442;DHT22;64346;50.820;16.274;2023-08-21T09:18:53;23.40;99.90
36442;DHT22;64346;50.820;16.274;2023-08-21T09:21:22;23.10;99.90
36442;DHT22;64346;50.820;16.274;2023-08-21T09:23:57;23.10;99.90
36442;DHT22;64346;50.820;16.274;2023-08-21T09:26:24;23.10;99.90
36442;DHT22;64346;50.820;16.274;2023-08-21T09:28:53;23.10;99.90
36442;DHT22;64346;50.820;16.274;2023-08-21T09:31:30;23.00;99.90
36442;DHT22;64346;50.820;16.274;2023-08-21T09:34:02;23.00;99.90
36442;DHT22;64346;50.820;16.274;2023-08-21T09:36:30;23.10;99.90
36442;DHT22;64346;50.820;16.274;2023-08-21T09:39:00;23.20;99.90
36442;DHT22;64346;50.820;16.274;2023-08-21T09:41:29;23.30;99.90
36442;DHT22;64346;50.820;16.274;2023-08-21T09:44:00;23.50;99.90
36442;DHT22;64346;50.820;16.274;2023-08-21T09:46:30;23.60;99.90
36442;DHT22;64346;50.820;16.274;2023-08-21T09:49:00;23.80;99.90
36442;DHT22;64346;50.820;16.274;2023-08-21T09:51:27;23.80;99.90
36442;DHT22;64346;50.820;16.274;2023-08-21T09:53:55;23.90;99.90
36442;DHT22;64346;50.820;16.274;2023-08-21T09:56:24;24.20;99.90
36442;DHT22;64346;50.820;16.274;2023-08-21T09:58:52;24.20;99.90
36442;DHT22;64346;50.820;16.274;2023-08-21T10:01:24;24.30;99.90
36442;DHT22;64346;50.820;16.274;2023-08-21T10:03:55;24.60;99.90
36442;DHT22;64346;50.820;16.274;2023-08-21T10:06:24;24.60;99.90
36442;DHT22;64346;50.820;16.274;2023-08-21T10:08:54;24.80;99.90
36442;DHT22;64346;50.820;16.274;2023-08-21T10:11:21;24.80;99.90
36442;DHT22;64346;50.820;16.274;2023-08-21T10:13:50;24.90;99.90
36442;DHT22;64346;50.820;16.274;2023-08-21T10:16:20;24.90;99.90
36442;DHT22;64346;50.820;16.274;2023-08-21T10:18:48;24.90;99.90
36442;DHT22;64346;50.820;16.274;2023-08-21T10:21:20;25.00;99.90
36442;DHT22;64346;50.820;16.274;2023-08-21T10:23:49;25.40;99.90
36442;DHT22;64346;50.820;16.274;2023-08-21T10:26:21;25.40;99.90
36442;DHT22;64346;50.820;16.274;2023-08-21T10:29:02;25.30;99.90
36442;DHT22;64346;50.820;16.274;2023-08-21T10:34:12;25.20;99.90
36442;DHT22;64346;50.820;16.274;2023-08-21T10:44:57;25.60;99.90
36442;DHT22;64346;50.820;16.274;2023-08-21T10:50:02;25.30;99.90
36442;DHT22;64346;50.820;16.274;2023-08-21T10:52:37;25.00;99.90
36442;DHT22;64346;50.820;16.274;2023-08-21T10:55:08;25.00;99.90
36442;DHT22;64346;50.820;16.274;2023-08-21T10:57:36;25.30;99.90
36442;DHT22;64346;50.820;16.274;2023-08-21T11:00:09;25.90;99.90
36442;DHT22;64346;50.820;16.274;2023-08-21T11:02:40;26.40;99.90
36442;DHT22;64346;50.820;16.274;2023-08-21T11:05:10;26.30;99.90
36442;DHT22;64346;50.820;16.274;2023-08-21T11:07:44;26.30;99.90
36442;DHT22;64346;50.820;16.274;2023-08-21T11:10:14;26.20;99.90
36442;DHT22;64346;50.820;16.274;2023-08-21T11:12:52;25.80;99.90
36442;DHT22;64346;50.820;16.274;2023-08-21T11:15:23;25.40;99.90
36442;DHT22;64346;50.820;16.274;2023-08-21T11:17:56;24.80;99.90
36442;DHT22;64346;50.820;16.274;2023-08-21T11:20:32;24.60;99.90
36442;DHT22;64346;50.820;16.274;2023-08-21T11:23:02;24.40;99.90
36442;DHT22;64346;50.820;16.274;2023-08-21T11:25:32;24.10;99.90
36442;DHT22;64346;50.820;16.274;2023-08-21T11:28:00;23.90;99.90
36442;DHT22;64346;50.820;16.274;2023-08-21T11:30:31;23.70;99.90
36442;DHT22;64346;50.820;16.274;2023-08-21T11:33:11;23.70;99.90
36442;DHT22;64346;50.820;16.274;2023-08-21T11:35:40;23.70;99.90
36442;DHT22;64346;50.820;16.274;2023-08-21T11:38:18;23.50;99.90
36442;DHT22;64346;50.820;16.274;2023-08-21T11:41:02;23.40;99.90
36442;DHT22;64346;50.820;16.274;2023-08-21T11:46:07;23.60;99.90
36442;DHT22;64346;50.820;16.274;2023-08-21T11:48:37;23.80;99.90
36442;DHT22;64346;50.820;16.274;2023-08-21T11:51:05;24.10;99.90
36442;DHT22;64346;50.820;16.274;2023-08-21T11:53:44;24.20;99.90
36442;DHT22;64346;50.820;16.274;2023-08-21T11:56:17;24.60;99.90
36442;DHT22;64346;50.820;16.274;2023-08-21T11:58:47;24.80;99.90
36442;DHT22;64346;50.820;16.274;2023-08-21T12:01:21;24.80;99.90
36442;DHT22;64346;50.820;16.274;2023-08-21T12:03:51;24.70;99.90
36442;DHT22;64346;50.820;16.274;2023-08-21T12:06:18;24.40;99.90
36442;DHT22;64346;50.820;16.274;2023-08-21T12:08:50;24.20;99.90
36442;DHT22;64346;50.820;16.274;2023-08-21T12:11:21;24.30;99.90
36442;DHT22;64346;50.820;16.274;2023-08-21T12:13:48;24.50;99.90
36442;DHT22;64346;50.820;16.274;2023-08-21T12:16:17;24.60;99.90
36442;DHT22;64346;50.820;16.274;2023-08-21T12:18:44;24.80;99.90
36442;DHT22;64346;50.820;16.274;2023-08-21T12:21:12;25.00;99.90
36442;DHT22;64346;50.820;16.274;2023-08-21T12:23:39;25.20;99.90
36442;DHT22;64346;50.820;16.274;2023-08-21T12:26:06;25.20;99.90
36442;DHT22;64346;50.820;16.274;2023-08-21T12:28:36;25.30;99.90
36442;DHT22;64346;50.820;16.274;2023-08-21T12:31:05;25.30;99.90
36442;DHT22;64346;50.820;16.274;2023-08-21T12:33:33;25.30;99.90
36442;DHT22;64346;50.820;16.274;2023-08-21T12:36:00;25.30;99.90
36442;DHT22;64346;50.820;16.274;2023-08-21T12:38:30;25.40;99.90
36442;DHT22;64346;50.820;16.274;2023-08-21T12:40:57;25.60;99.90
36442;DHT22;64346;50.820;16.274;2023-08-21T12:43:24;25.70;99.90
36442;DHT22;64346;50.820;16.274;2023-08-21T12:45:52;25.80;99.90
36442;DHT22;64346;50.820;16.274;2023-08-21T12:48:19;26.00;99.90
36442;DHT22;64346;50.820;16.274;2023-08-21T12:50:46;26.00;99.90
36442;DHT22;64346;50.820;16.274;2023-08-21T12:53:14;26.00;99.90
36442;DHT22;64346;50.820;16.274;2023-08-21T12:55:41;26.10;99.90
36442;DHT22;64346;50.820;16.274;2023-08-21T12:58:09;26.10;99.90
36442;DHT22;64346;50.820;16.274;2023-08-21T13:00:38;26.00;99.90
36442;DHT22;64346;50.820;16.274;2023-08-21T13:03:06;26.00;99.90
36442;DHT22;64346;50.820;16.274;2023-08-21T13:05:33;26.00;99.90
36442;DHT22;64346;50.820;16.274;2023-08-21T13:08:01;26.00;99.90
36442;DHT22;64346;50.820;16.274;2023-08-21T13:10:29;26.00;99.90
36442;DHT22;64346;50.820;16.274;2023-08-21T13:12:56;25.90;99.90
36442;DHT22;64346;50.820;16.274;2023-08-21T13:15:26;26.00;99.90
36442;DHT22;64346;50.820;16.274;2023-08-21T13:17:53;26.10;99.90
36442;DHT22;64346;50.820;16.274;2023-08-21T13:20:23;26.20;99.90
36442;DHT22;64346;50.820;16.274;2023-08-21T13:22:51;26.20;99.90
36442;DHT22;64346;50.820;16.274;2023-08-21T13:25:20;26.20;99.90
36442;DHT22;64346;50.820;16.274;2023-08-21T13:27:48;26.20;99.90
36442;DHT22;64346;50.820;16.274;2023-08-21T13:30:15;26.20;99.90
36442;DHT22;64346;50.820;16.274;2023-08-21T13:32:43;26.30;99.90
36442;DHT22;64346;50.820;16.274;2023-08-21T13:35:11;26.30;99.90
36442;DHT22;64346;50.820;16.274;2023-08-21T13:37:38;26.40;99.90
36442;DHT22;64346;50.820;16.274;2023-08-21T13:40:07;26.30;99.90
36442;DHT22;64346;50.820;16.274;2023-08-21T13:42:38;26.20;99.90
36442;DHT22;64346;50.820;16.274;2023-08-21T13:45:08;26.30;99.90
36442;DHT22;64346;50.820;16.274;2023-08-21T13:47:38;26.30;99.90
36442;DHT22;64346;50.820;16.274;2023-08-21T13:50:07;26.30;99.90
36442;DHT22;64346;50.820;16.274;2023-08-21T13:52:35;26.30;99.90
36442;DHT22;64346;50.820;16.274;2023-08-21T13:55:03;26.30;99.90
36442;DHT22;64346;50.820;16.274;2023-08-21T13:57:30;26.20;99.90
36442;DHT22;64346;50.820;16.274;2023-08-21T14:00:00;26.20;99.90
36442;DHT22;64346;50.820;16.274;2023-08-21T14:02:28;26.20;99.90
36442;DHT22;64346;50.820;16.274;2023-08-21T14:04:57;26.20;99.90
36442;DHT22;64346;50.820;16.274;2023-08-21T14:07:24;26.20;99.90
36442;DHT22;64346;50.820;16.274;2023-08-21T14:09:55;26.20;99.90
36442;DHT22;64346;50.820;16.274;2023-08-21T14:12:24;26.20;99.90
36442;DHT22;64346;50.820;16.274;2023-08-21T14:14:51;26.20;99.90
36442;DHT22;64346;50.820;16.274;2023-08-21T14:17:21;26.20;99.90
36442;DHT22;64346;50.820;16.274;2023-08-21T14:19:49;26.20;99.90
36442;DHT22;64346;50.820;16.274;2023-08-21T14:22:16;26.20;99.90
36442;DHT22;64346;50.820;16.274;2023-08-21T14:24:45;26.30;99.90
36442;DHT22;64346;50.820;16.274;2023-08-21T14:27:13;26.20;99.90
36442;DHT22;64346;50.820;16.274;2023-08-21T14:29:44;26.30;99.90
36442;DHT22;64346;50.820;16.274;2023-08-21T14:32:12;26.20;99.90
36442;DHT22;64346;50.820;16.274;2023-08-21T14:34:42;26.40;99.90
36442;DHT22;64346;50.820;16.274;2023-08-21T14:37:10;26.40;99.90
36442;DHT22;64346;50.820;16.274;2023-08-21T14:39:37;26.50;99.90
36442;DHT22;64346;50.820;16.274;2023-08-21T14:42:06;26.50;99.90
36442;DHT22;64346;50.820;16.274;2023-08-21T14:44:36;26.60;99.90
36442;DHT22;64346;50.820;16.274;2023-08-21T14:47:04;26.60;99.90
36442;DHT22;64346;50.820;16.274;2023-08-21T14:49:34;26.70;99.90
36442;DHT22;64346;50.820;16.274;2023-08-21T14:52:02;26.70;99.90
36442;DHT22;64346;50.820;16.274;2023-08-21T14:54:32;26.70;99.90
36442;DHT22;64346;50.820;16.274;2023-08-21T14:57:00;26.80;99.90
36442;DHT22;64346;50.820;16.274;2023-08-21T14:59:27;26.70;99.90
36442;DHT22;64346;50.820;16.274;2023-08-21T15:01:57;26.70;99.90
36442;DHT22;64346;50.820;16.274;2023-08-21T15:04:26;26.60;99.90
36442;DHT22;64346;50.820;16.274;2023-08-21T15:06:56;26.60;99.90
36442;DHT22;64346;50.820;16.274;2023-08-21T15:09:25;26.60;99.90
36442;DHT22;64346;50.820;16.274;2023-08-21T15:11:57;26.60;99.90
36442;DHT22;64346;50.820;16.274;2023-08-21T15:14:24;26.60;99.90
36442;DHT22;64346;50.820;16.274;2023-08-21T15:16:51;26.60;99.90
36442;DHT22;64346;50.820;16.274;2023-08-21T15:19:31;26.60;99.90
36442;DHT22;64346;50.820;16.274;2023-08-21T15:21:58;26.60;99.90
36442;DHT22;64346;50.820;16.274;2023-08-21T15:24:25;26.50;99.90
36442;DHT22;64346;50.820;16.274;2023-08-21T15:26:52;26.50;99.90
36442;DHT22;64346;50.820;16.274;2023-08-21T15:29:20;26.40;99.90
36442;DHT22;64346;50.820;16.274;2023-08-21T15:31:47;26.40;99.90
36442;DHT22;64346;50.820;16.274;2023-08-21T15:34:14;26.50;99.90
36442;DHT22;64346;50.820;16.274;2023-08-21T15:36:41;26.50;99.90
36442;DHT22;64346;50.820;16.274;2023-08-21T15:39:11;26.60;99.90
36442;DHT22;64346;50.820;16.274;2023-08-21T15:41:41;26.60;99.90
36442;DHT22;64346;50.820;16.274;2023-08-21T15:44:11;26.60;99.90
36442;DHT22;64346;50.820;16.274;2023-08-21T15:46:38;26.70;99.90
36442;DHT22;64346;50.820;16.274;2023-08-21T15:49:09;26.70;99.90